createdAt,value
2023-02-15T00:00:19.553Z,3.81
2023-02-15T00:03:11.814Z,3.79
2023-02-15T00:05:44.113Z,3.78
2023-02-15T00:08:16.281Z,3.74
2023-02-15T00:10:48.664Z,3.73
2023-02-15T00:13:21.211Z,3.72
2023-02-15T00:15:53.730Z,3.70
2023-02-15T00:18:26.093Z,3.68
2023-02-15T00:20:59.162Z,3.66
2023-02-15T00:23:31.382Z,3.63
2023-02-15T00:26:11.828Z,3.65
2023-02-15T00:28:47.725Z,3.64
2023-02-15T00:31:22.125Z,3.63
2023-02-15T00:33:56.780Z,3.59
2023-02-15T00:36:29.023Z,3.60
2023-02-15T00:39:05.700Z,3.61
2023-02-15T00:41:38.612Z,3.59
2023-02-15T00:44:11.642Z,3.55
2023-02-15T00:46:44.265Z,3.51
2023-02-15T00:49:16.738Z,3.49
2023-02-15T00:51:49.490Z,3.48
2023-02-15T00:54:22.119Z,3.51
2023-02-15T00:56:56.237Z,3.56
2023-02-15T00:59:28.549Z,3.58
2023-02-15T01:02:00.832Z,3.62
2023-02-15T01:04:33.607Z,3.68
2023-02-15T01:07:10.114Z,3.69
2023-02-15T01:09:44.773Z,3.70
2023-02-15T01:12:19.501Z,3.66
2023-02-15T01:14:53.300Z,3.63
2023-02-15T01:17:25.742Z,3.61
2023-02-15T01:19:58.537Z,3.57
2023-02-15T01:22:30.975Z,3.53
2023-02-15T01:25:03.213Z,3.50
2023-02-15T01:27:35.608Z,3.51
2023-02-15T01:30:12.571Z,3.54
2023-02-15T01:32:45.978Z,3.57
2023-02-15T01:35:18.363Z,3.57
2023-02-15T01:37:51.012Z,3.52
2023-02-15T01:40:28.858Z,3.46
2023-02-15T01:43:03.389Z,3.44
2023-02-15T01:45:38.125Z,3.41
2023-02-15T01:48:21.909Z,3.40
2023-02-15T01:50:59.749Z,3.38
2023-02-15T01:53:38.074Z,3.38
2023-02-15T01:56:17.169Z,3.39
2023-02-15T01:58:56.356Z,3.39
2023-02-15T02:01:30.022Z,3.35
2023-02-15T02:04:09.125Z,3.31
2023-02-15T02:06:42.156Z,3.27
2023-02-15T02:09:14.896Z,3.27
2023-02-15T02:11:50.204Z,3.28
2023-02-15T02:14:23.141Z,3.29
2023-02-15T02:17:00.849Z,3.27
2023-02-15T02:20:16.468Z,3.23
2023-02-15T02:23:10.361Z,3.21
2023-02-15T02:25:59.464Z,3.22
2023-02-15T02:31:48.166Z,3.26
2023-02-15T02:34:27.900Z,3.17
2023-02-15T02:37:17.445Z,3.17
2023-02-15T02:39:57.857Z,3.17
2023-02-15T02:42:38.184Z,3.14
2023-02-15T02:45:16.091Z,3.08
2023-02-15T02:47:56.904Z,3.06
2023-02-15T02:50:31.768Z,3.03
2023-02-15T02:53:04.220Z,3.00
2023-02-15T02:55:42.416Z,2.98
2023-02-15T02:58:20.010Z,2.92
2023-02-15T03:00:59.867Z,2.91
2023-02-15T03:03:39.803Z,2.90
2023-02-15T03:06:18.915Z,2.90
2023-02-15T03:08:54.595Z,2.89
2023-02-15T03:11:27.560Z,2.92
2023-02-15T03:14:01.356Z,2.93
2023-02-15T03:16:33.878Z,2.96
2023-02-15T03:19:10.812Z,2.95
2023-02-15T03:21:50.555Z,2.95
2023-02-15T03:24:29.202Z,2.93
2023-02-15T03:27:05.585Z,2.94
2023-02-15T03:29:41.889Z,2.91
2023-02-15T03:32:16.880Z,2.88
2023-02-15T03:34:52.515Z,2.87
2023-02-15T03:37:32.200Z,2.83
2023-02-15T03:40:25.526Z,2.79
2023-02-15T03:43:04.167Z,2.76
2023-02-15T03:45:39.002Z,2.75
2023-02-15T03:48:14.074Z,2.76
2023-02-15T03:51:04.052Z,2.79
2023-02-15T03:53:37.311Z,2.80
2023-02-15T03:56:10.347Z,2.81
2023-02-15T03:58:59.271Z,2.83
2023-02-15T04:01:56.937Z,2.84
2023-02-15T04:04:34.492Z,2.82
2023-02-15T04:07:11.009Z,2.81
2023-02-15T04:10:01.012Z,2.79
2023-02-15T04:12:34.606Z,2.77
2023-02-15T04:15:25.338Z,2.73
2023-02-15T04:17:57.567Z,2.71
2023-02-15T04:20:48.512Z,2.71
2023-02-15T04:23:38.347Z,2.72
2023-02-15T04:26:10.631Z,2.75
2023-02-15T04:28:42.951Z,2.74
2023-02-15T04:31:15.352Z,2.68
2023-02-15T04:33:48.853Z,2.60
2023-02-15T04:36:21.234Z,2.60
2023-02-15T04:38:55.740Z,2.60
2023-02-15T04:41:28.013Z,2.60
2023-02-15T04:44:00.459Z,2.61
2023-02-15T04:46:33.229Z,2.65
2023-02-15T04:49:06.696Z,2.66
2023-02-15T04:51:40.660Z,2.66
2023-02-15T04:54:12.983Z,2.67
2023-02-15T04:56:45.706Z,2.61
2023-02-15T04:59:20.520Z,2.59
2023-02-15T05:01:52.826Z,2.57
2023-02-15T05:04:25.229Z,2.54
2023-02-15T05:06:57.937Z,2.54
2023-02-15T05:12:43.389Z,2.56
2023-02-15T05:15:16.016Z,2.55
2023-02-15T05:17:48.441Z,2.55
2023-02-15T05:20:21.088Z,2.55
2023-02-15T05:22:56.841Z,2.54
2023-02-15T05:25:47.080Z,2.53
2023-02-15T05:28:22.014Z,2.50
2023-02-15T05:31:03.311Z,2.50
2023-02-15T05:33:36.513Z,2.50
2023-02-15T05:36:10.268Z,2.48
2023-02-15T05:38:42.860Z,2.41
2023-02-15T05:41:15.197Z,2.38
2023-02-15T05:43:50.513Z,2.36
2023-02-15T05:46:22.789Z,2.35
2023-02-15T05:48:56.816Z,2.34
2023-02-15T05:51:32.140Z,2.33
2023-02-15T05:54:04.465Z,2.31
2023-02-15T05:56:36.650Z,2.31
2023-02-15T05:59:09.074Z,2.29
2023-02-15T06:01:41.459Z,2.31
2023-02-15T06:04:15.047Z,2.33
2023-02-15T06:06:47.479Z,2.33
2023-02-15T06:09:20.812Z,2.31
2023-02-15T06:11:53.463Z,2.30
2023-02-15T06:14:25.838Z,2.30
2023-02-15T06:16:58.044Z,2.28
2023-02-15T06:19:30.329Z,2.24
2023-02-15T06:22:03.029Z,2.19
2023-02-15T06:24:35.290Z,2.12
2023-02-15T06:27:07.555Z,2.05
2023-02-15T06:29:40.012Z,2.02
2023-02-15T06:32:12.731Z,1.99
2023-02-15T06:34:45.117Z,1.96
2023-02-15T06:37:19.985Z,1.97
2023-02-15T06:39:52.416Z,1.96
2023-02-15T06:42:24.908Z,1.94
2023-02-15T06:44:57.182Z,1.92
2023-02-15T06:47:30.320Z,1.90
2023-02-15T06:50:02.893Z,1.90
2023-02-15T06:52:35.321Z,1.90
2023-02-15T06:55:08.620Z,1.91
2023-02-15T06:57:40.897Z,1.91
2023-02-15T07:00:18.771Z,1.92
2023-02-15T07:02:58.725Z,1.91
2023-02-15T07:05:36.885Z,1.91
2023-02-15T07:08:10.671Z,1.92
2023-02-15T07:10:45.376Z,1.92
2023-02-15T07:13:17.609Z,1.89
2023-02-15T07:15:52.915Z,1.83
2023-02-15T07:18:25.288Z,1.78
2023-02-15T07:20:58.076Z,1.74
2023-02-15T07:23:30.484Z,1.69
2023-02-15T07:26:04.168Z,1.68
2023-02-15T07:28:37.438Z,1.70
2023-02-15T07:31:10.074Z,1.73
2023-02-15T07:33:43.166Z,1.76
2023-02-15T07:36:15.503Z,1.78
2023-02-15T07:38:47.956Z,1.81
2023-02-15T07:41:21.044Z,1.78
2023-02-15T07:43:53.434Z,1.72
2023-02-15T07:46:26.084Z,1.69
2023-02-15T07:49:01.083Z,1.70
2023-02-15T07:51:36.201Z,1.72
2023-02-15T07:54:10.789Z,1.72
2023-02-15T07:56:51.469Z,1.69
2023-02-15T07:59:26.291Z,1.67
2023-02-15T08:01:59.042Z,1.70
2023-02-15T08:04:32.337Z,1.75
2023-02-15T08:07:05.327Z,1.77
2023-02-15T08:09:37.837Z,1.78
2023-02-15T08:12:10.533Z,1.80
2023-02-15T08:14:43.041Z,1.83
2023-02-15T08:17:15.582Z,1.87
2023-02-15T08:19:48.937Z,1.89
2023-02-15T08:22:21.385Z,1.90
2023-02-15T08:24:55.323Z,1.89
2023-02-15T08:27:27.905Z,1.89
2023-02-15T08:30:00.755Z,1.86
2023-02-15T08:32:33.255Z,1.86
2023-02-15T08:35:07.587Z,1.92
2023-02-15T08:37:39.945Z,1.94
2023-02-15T08:40:14.611Z,1.87
2023-02-15T08:42:46.882Z,1.90
2023-02-15T08:45:19.547Z,1.95
2023-02-15T08:48:04.419Z,1.97
2023-02-15T08:50:50.162Z,1.97
2023-02-15T08:53:22.800Z,1.88
2023-02-15T08:56:00.474Z,1.85
2023-02-15T08:58:40.127Z,1.86
2023-02-15T09:01:21.144Z,1.90
2023-02-15T09:04:05.588Z,1.93
2023-02-15T09:06:47.633Z,1.94
2023-02-15T09:09:24.109Z,1.93
2023-02-15T09:12:00.396Z,1.91
2023-02-15T09:14:33.422Z,1.94
2023-02-15T09:17:05.937Z,2.00
2023-02-15T09:19:38.409Z,2.04
2023-02-15T09:22:15.068Z,2.07
2023-02-15T09:24:51.061Z,2.05
2023-02-15T09:27:23.295Z,2.00
2023-02-15T09:29:55.745Z,1.96
2023-02-15T09:32:28.226Z,1.96
2023-02-15T09:35:00.739Z,1.98
2023-02-15T09:37:40.268Z,2.06
2023-02-15T09:40:18.048Z,2.11
2023-02-15T09:46:26.060Z,2.23
2023-02-15T09:49:08.451Z,2.25
2023-02-15T09:52:10.746Z,2.29
2023-02-15T09:54:58.916Z,2.33
2023-02-15T09:57:38.817Z,2.44
2023-02-15T10:00:22.106Z,2.51
2023-02-15T10:03:13.021Z,2.58
2023-02-15T10:06:00.130Z,2.70
2023-02-15T10:08:59.976Z,2.87
2023-02-15T10:11:43.155Z,3.04
2023-02-15T10:14:39.410Z,3.19
2023-02-15T10:17:26.022Z,3.44
2023-02-15T10:20:12.847Z,3.66
2023-02-15T10:23:02.593Z,4.02
2023-02-15T10:25:44.239Z,5.28
2023-02-15T10:28:20.471Z,5.60
2023-02-15T10:30:54.399Z,5.97
2023-02-15T10:33:40.385Z,6.14
2023-02-15T10:36:30.243Z,6.55
2023-02-15T10:39:10.278Z,7.33
2023-02-15T10:41:53.024Z,8.35
2023-02-15T10:44:42.325Z,9.58
2023-02-15T10:47:31.952Z,11.01
2023-02-15T10:50:16.863Z,12.49
2023-02-15T10:53:07.940Z,14.23
2023-02-15T10:55:54.184Z,15.68
2023-02-15T10:58:38.434Z,16.00
2023-02-15T11:01:22.821Z,16.70
2023-02-15T11:04:18.572Z,18.20
2023-02-15T11:06:57.624Z,18.94
2023-02-15T11:09:39.189Z,19.01
2023-02-15T11:12:27.747Z,19.62
2023-02-15T11:15:05.007Z,19.35
2023-02-15T11:17:43.285Z,19.09
2023-02-15T11:20:26.500Z,19.27
2023-02-15T11:22:58.788Z,19.31
2023-02-15T11:25:34.877Z,19.21
2023-02-15T11:28:16.208Z,18.87
2023-02-15T11:30:55.643Z,18.04
2023-02-15T11:37:02.801Z,16.95
2023-02-15T11:39:34.362Z,17.36
2023-02-15T11:42:11.248Z,16.06
2023-02-15T11:44:48.117Z,14.82
2023-02-15T11:47:17.043Z,14.42
2023-02-15T11:49:47.258Z,14.78
2023-02-15T11:52:19.198Z,14.87
2023-02-15T11:54:51.034Z,14.12
2023-02-15T11:57:27.785Z,13.29
2023-02-15T12:00:04.399Z,12.74
2023-02-15T12:02:39.360Z,12.46
2023-02-15T12:05:13.608Z,12.16
2023-02-15T12:07:47.169Z,12.04
2023-02-15T12:10:22.908Z,12.26
2023-02-15T12:13:11.692Z,12.48
2023-02-15T12:15:44.126Z,12.39
2023-02-15T12:18:25.909Z,12.63
2023-02-15T12:20:59.093Z,13.04
2023-02-15T12:23:30.135Z,13.45
2023-02-15T12:26:00.316Z,13.27
2023-02-15T12:28:35.651Z,13.36
2023-02-15T12:31:18.679Z,13.80
2023-02-15T12:33:49.194Z,13.79
2023-02-15T12:36:22.240Z,14.89
2023-02-15T12:39:18.073Z,15.39
2023-02-15T12:41:57.758Z,15.32
2023-02-15T12:44:29.281Z,15.19
2023-02-15T12:47:00.547Z,15.59
2023-02-15T12:49:30.739Z,16.40
2023-02-15T12:52:01.613Z,16.72
2023-02-15T12:54:40.666Z,16.35
2023-02-15T12:57:23.510Z,15.85
2023-02-15T12:59:54.959Z,16.10
2023-02-15T13:02:27.897Z,17.20
2023-02-15T13:04:58.371Z,17.99
2023-02-15T13:07:33.312Z,18.35
2023-02-15T13:10:02.542Z,18.21
2023-02-15T13:12:32.707Z,18.54
2023-02-15T13:15:05.124Z,18.61
2023-02-15T13:17:35.271Z,18.61
2023-02-15T13:20:09.811Z,18.83
2023-02-15T13:22:43.392Z,19.08
2023-02-15T13:25:18.996Z,19.20
2023-02-15T13:27:52.761Z,19.39
2023-02-15T13:30:27.493Z,19.42
2023-02-15T13:33:04.946Z,19.20
2023-02-15T13:35:42.704Z,18.91
2023-02-15T13:38:28.239Z,18.39
2023-02-15T13:41:04.227Z,17.61
2023-02-15T13:43:46.799Z,17.18
2023-02-15T13:46:25.785Z,17.05
2023-02-15T13:49:07.371Z,16.82
2023-02-15T13:51:42.567Z,16.41
2023-02-15T13:54:37.814Z,16.16
2023-02-15T13:57:26.261Z,15.97
2023-02-15T14:00:10.319Z,15.92
2023-02-15T14:03:19.368Z,15.87
2023-02-15T14:06:04.344Z,15.79
2023-02-15T14:08:52.130Z,15.57
2023-02-15T14:11:28.407Z,15.49
2023-02-15T14:14:41.099Z,15.56
2023-02-15T14:17:23.634Z,15.51
2023-02-15T14:19:58.391Z,15.43
2023-02-15T14:22:36.956Z,15.30
2023-02-15T14:25:18.944Z,15.14
2023-02-15T14:27:57.396Z,14.74
2023-02-15T14:30:30.562Z,14.32
2023-02-15T14:33:06.841Z,14.06
2023-02-15T14:35:36.932Z,13.87
2023-02-15T14:38:16.167Z,13.75
2023-02-15T14:41:02.591Z,13.71
2023-02-15T14:43:42.043Z,13.65
2023-02-15T14:46:19.637Z,13.51
2023-02-15T14:48:51.478Z,13.29
2023-02-15T14:51:58.396Z,13.08
2023-02-15T14:54:59.075Z,12.85
2023-02-15T14:57:34.863Z,12.65
2023-02-15T15:00:34.610Z,12.53
2023-02-15T15:03:10.946Z,12.39
2023-02-15T15:05:50.655Z,12.20
2023-02-15T15:08:29.861Z,11.95
2023-02-15T15:11:44.201Z,11.70
2023-02-15T15:14:41.919Z,11.40
2023-02-15T15:17:38.157Z,11.14
2023-02-15T15:20:14.106Z,10.88
2023-02-15T15:22:44.009Z,10.68
2023-02-15T15:25:35.198Z,10.48
2023-02-15T15:28:04.906Z,10.29
2023-02-15T15:30:54.949Z,10.12
2023-02-15T15:34:07.097Z,9.94
2023-02-15T15:37:08.066Z,9.72
2023-02-15T15:40:10.866Z,9.49
2023-02-15T15:42:50.704Z,9.24
2023-02-15T15:45:55.108Z,9.03
2023-02-15T15:48:31.914Z,8.81
2023-02-15T15:51:04.324Z,8.59
2023-02-15T15:53:41.654Z,8.38
2023-02-15T15:56:16.451Z,8.15
2023-02-15T15:58:50.308Z,7.95
2023-02-15T16:01:27.277Z,7.71
2023-02-15T16:03:57.879Z,7.49
2023-02-15T16:06:33.942Z,7.26
2023-02-15T16:09:18.930Z,7.04
2023-02-15T16:11:51.446Z,6.83
2023-02-15T16:14:27.571Z,6.64
2023-02-15T16:16:59.060Z,6.46
2023-02-15T16:19:31.687Z,6.28
2023-02-15T16:22:03.199Z,6.08
2023-02-15T16:24:49.973Z,5.90
2023-02-15T16:27:32.077Z,5.72
2023-02-15T16:30:19.093Z,5.57
2023-02-15T16:32:48.518Z,5.37
2023-02-15T16:35:22.607Z,5.18
2023-02-15T16:37:58.934Z,5.02
2023-02-15T16:40:36.683Z,4.87
2023-02-15T16:43:12.533Z,4.70
2023-02-15T16:45:41.616Z,4.54
2023-02-15T16:48:19.437Z,4.39
2023-02-15T16:50:55.512Z,4.27
2023-02-15T16:53:27.284Z,4.14
2023-02-15T16:55:58.718Z,4.02
2023-02-15T16:58:36.932Z,3.90
2023-02-15T17:01:09.603Z,3.77
2023-02-15T17:03:39.861Z,3.65
2023-02-15T17:06:22.085Z,3.54
2023-02-15T17:08:51.193Z,3.41
2023-02-15T17:11:22.139Z,3.30
2023-02-15T17:14:14.811Z,3.20
2023-02-15T17:16:49.410Z,3.09
2023-02-15T17:19:21.708Z,3.01
2023-02-15T17:21:53.547Z,2.96
2023-02-15T17:24:36.588Z,2.88
2023-02-15T17:27:12.862Z,2.80
2023-02-15T17:29:45.521Z,2.75
2023-02-15T17:32:19.665Z,2.70
2023-02-15T17:35:17.620Z,2.65
2023-02-15T17:37:49.157Z,2.59
2023-02-15T17:40:25.515Z,2.51
2023-02-15T17:46:07.771Z,2.34
2023-02-15T17:48:43.377Z,2.27
2023-02-15T17:51:17.463Z,2.24
2023-02-15T17:54:04.274Z,2.23
2023-02-15T17:56:38.178Z,2.23
2023-02-15T17:59:12.607Z,2.18
2023-02-15T18:02:07.271Z,2.17
2023-02-15T18:04:58.069Z,2.12
2023-02-15T18:07:49.102Z,2.08
2023-02-15T18:10:39.744Z,2.02
2023-02-15T18:13:12.188Z,1.99
2023-02-15T18:15:44.550Z,1.97
2023-02-15T18:18:16.979Z,1.94
2023-02-15T18:20:49.364Z,1.92
2023-02-15T18:23:21.673Z,1.91
2023-02-15T18:25:53.977Z,1.88
2023-02-15T18:28:26.255Z,1.86
2023-02-15T18:31:01.917Z,1.85
2023-02-15T18:33:40.463Z,1.83
2023-02-15T18:36:19.703Z,1.81
2023-02-15T18:38:53.631Z,1.78
2023-02-15T18:41:26.657Z,1.73
2023-02-15T18:43:58.832Z,1.72
2023-02-15T18:46:31.003Z,1.72
2023-02-15T18:49:03.183Z,1.74
2023-02-15T18:51:40.434Z,1.83
2023-02-15T18:54:21.550Z,1.92
2023-02-15T18:56:57.595Z,1.95
2023-02-15T18:59:32.633Z,1.96
2023-02-15T19:02:07.225Z,2.01
2023-02-15T19:04:39.531Z,2.12
2023-02-15T19:07:18.664Z,2.24
2023-02-15T19:09:54.170Z,2.34
2023-02-15T19:12:27.435Z,2.40
2023-02-15T19:15:00.103Z,2.45
2023-02-15T19:17:32.493Z,2.47
2023-02-15T19:20:04.686Z,2.51
2023-02-15T19:22:36.997Z,2.55
2023-02-15T19:25:14.990Z,2.60
2023-02-15T19:27:50.520Z,2.62
2023-02-15T19:30:29.970Z,2.60
2023-02-15T19:33:05.149Z,2.62
2023-02-15T19:35:38.346Z,2.64
2023-02-15T19:38:17.354Z,2.67
2023-02-15T19:40:50.412Z,2.68
2023-02-15T19:43:27.913Z,2.70
2023-02-15T19:46:00.171Z,2.71
2023-02-15T19:48:32.841Z,2.72
2023-02-15T19:51:05.226Z,2.72
2023-02-15T19:53:37.462Z,2.75
2023-02-15T19:56:14.167Z,2.76
2023-02-15T19:58:46.314Z,2.77
2023-02-15T20:01:19.411Z,2.78
2023-02-15T20:03:52.232Z,2.79
2023-02-15T20:06:24.476Z,2.79
2023-02-15T20:08:57.093Z,2.80
2023-02-15T20:11:29.326Z,2.81
2023-02-15T20:14:01.518Z,2.82
2023-02-15T20:16:33.756Z,2.82
2023-02-15T20:19:06.507Z,2.80
2023-02-15T20:21:39.274Z,2.79
2023-02-15T20:24:17.948Z,2.78
2023-02-15T20:26:50.445Z,2.74
2023-02-15T20:29:23.175Z,2.73
2023-02-15T20:31:55.861Z,2.71
2023-02-15T20:34:28.239Z,2.69
2023-02-15T20:37:00.921Z,2.66
2023-02-15T20:39:35.001Z,2.67
2023-02-15T20:42:07.553Z,2.66
2023-02-15T20:44:41.238Z,2.63
2023-02-15T20:47:16.575Z,2.60
2023-02-15T20:49:48.972Z,2.57
2023-02-15T20:52:22.205Z,2.54
2023-02-15T20:54:54.673Z,2.52
2023-02-15T20:57:26.971Z,2.48
2023-02-15T20:59:59.564Z,2.44
2023-02-15T21:02:31.897Z,2.38
2023-02-15T21:05:04.818Z,2.33
2023-02-15T21:07:38.454Z,2.28
2023-02-15T21:10:16.993Z,2.25
2023-02-15T21:12:51.012Z,2.22
2023-02-15T21:15:32.978Z,2.18
2023-02-15T21:18:08.203Z,2.14
2023-02-15T21:20:46.547Z,2.11
2023-02-15T21:23:22.322Z,2.08
2023-02-15T21:25:55.471Z,2.06
2023-02-15T21:28:29.130Z,2.04
2023-02-15T21:31:02.304Z,2.01
2023-02-15T21:33:35.155Z,1.99
2023-02-15T21:36:14.238Z,1.98
2023-02-15T21:38:47.066Z,1.95
2023-02-15T21:41:41.884Z,1.95
2023-02-15T21:44:38.349Z,1.93
2023-02-15T21:47:39.047Z,1.93
2023-02-15T21:50:31.676Z,1.93
2023-02-15T21:53:05.228Z,1.88
2023-02-15T21:55:37.525Z,1.87
2023-02-15T21:58:16.138Z,1.86
2023-02-15T22:00:49.481Z,1.85
2023-02-15T22:03:22.239Z,1.82
2023-02-15T22:05:54.645Z,1.79
2023-02-15T22:08:26.808Z,1.77
2023-02-15T22:10:59.502Z,1.76
2023-02-15T22:13:34.262Z,1.74
2023-02-15T22:16:07.098Z,1.73
2023-02-15T22:18:39.271Z,1.74
2023-02-15T22:21:12.219Z,1.73
2023-02-15T22:23:44.478Z,1.78
2023-02-15T22:26:23.845Z,1.78
2023-02-15T22:28:57.925Z,1.78
2023-02-15T22:31:30.946Z,1.74
2023-02-15T22:34:05.830Z,1.73
2023-02-15T22:36:38.244Z,1.73
2023-02-15T22:39:10.537Z,1.70
2023-02-15T22:41:42.960Z,1.69
2023-02-15T22:44:18.875Z,1.70
2023-02-15T22:46:51.460Z,1.68
2023-02-15T22:49:24.101Z,1.66
2023-02-15T22:51:56.466Z,1.65
2023-02-15T22:54:28.743Z,1.64
2023-02-15T22:57:01.532Z,1.65
2023-02-15T22:59:34.377Z,1.64
2023-02-15T23:02:07.680Z,1.61
2023-02-15T23:04:39.888Z,1.61
2023-02-15T23:07:16.444Z,1.58
2023-02-15T23:09:49.149Z,1.53
2023-02-15T23:12:28.215Z,1.50
2023-02-15T23:15:00.699Z,1.46
2023-02-15T23:17:33.127Z,1.45
2023-02-15T23:20:05.931Z,1.45
2023-02-15T23:22:38.383Z,1.44
2023-02-15T23:25:13.952Z,1.42
2023-02-15T23:27:58.542Z,1.39
2023-02-15T23:30:30.950Z,1.37
2023-02-15T23:33:03.422Z,1.35
2023-02-15T23:35:35.875Z,1.32
2023-02-15T23:38:13.508Z,1.29
2023-02-15T23:41:05.370Z,1.26
2023-02-15T23:43:38.676Z,1.22
2023-02-15T23:46:18.611Z,1.20
2023-02-15T23:48:51.180Z,1.16
2023-02-15T23:51:32.992Z,1.14
2023-02-15T23:54:05.536Z,1.12
2023-02-15T23:56:42.311Z,1.11
2023-02-15T23:59:19.293Z,1.10
